Time;durP1;ratioP1;P1;durP2;ratioP2;P2;SDS_P1;SDS_P2;PMS_P1;PMS_P2;Temp;Humidity;BMP_temperature;BMP_pressure;BME280_temperature;BME280_humidity;BME280_pressure;Samples;Min_cycle;Max_cycle;Signal;HPM_P1;HPM_P2
2022/03/18 00:01:18;;;;;;;;;;;15.30;64.70;;;;;;5290786;28;19951;-31
2022/03/18 00:03:49;;;;;;;;;;;15.30;64.90;;;;;;5291034;28;19959;-31
2022/03/18 00:06:19;;;;;;;;;;;15.30;65.20;;;;;;5289621;28;20018;-30
2022/03/18 00:08:50;;;;;;;;;;;15.30;65.20;;;;;;5290654;28;19973;-30
2022/03/18 00:11:21;;;;;;;;;;;15.30;65.30;;;;;;5290846;28;20284;-33
2022/03/18 00:13:52;;;;;;;;;;;15.20;65.40;;;;;;5290900;28;19920;-33
2022/03/18 00:16:23;;;;;;;;;;;15.30;65.60;;;;;;5290628;28;19926;-32
2022/03/18 00:18:55;;;;;;;;;;;15.20;65.60;;;;;;5290647;28;19931;-30
2022/03/18 00:21:25;;;;;;;;;;;15.20;65.80;;;;;;5290432;28;19920;-30
2022/03/18 00:23:58;;;;;;;;;;;15.20;65.70;;;;;;5290677;28;19920;-36
2022/03/18 00:26:28;;;;;;;;;;;15.20;66.10;;;;;;5290633;28;19927;-30
2022/03/18 00:28:59;;;;;;;;;;;15.20;65.90;;;;;;5276038;28;20369;-34
2022/03/18 00:31:30;;;;;;;;;;;15.20;65.80;;;;;;5290482;28;19927;-30
2022/03/18 00:34:02;;;;;;;;;;;15.10;65.60;;;;;;5290174;28;19941;-33
2022/03/18 00:36:32;;;;;;;;;;;15.20;65.60;;;;;;5290570;28;19924;-33
2022/03/18 00:39:03;;;;;;;;;;;15.20;65.80;;;;;;5290086;28;19965;-36
2022/03/18 00:41:34;;;;;;;;;;;15.10;65.60;;;;;;5268032;28;19920;-32
2022/03/18 00:44:05;;;;;;;;;;;15.10;65.80;;;;;;5288090;28;19928;-31
2022/03/18 00:46:36;;;;;;;;;;;15.10;65.80;;;;;;5290083;28;19985;-30
2022/03/18 00:52:06;;;;;;;;;;;15.10;65.90;;;;;;5280201;28;20285;-31
2022/03/18 00:54:39;;;;;;;;;;;15.00;65.90;;;;;;5286777;28;19924;-34
2022/03/18 00:57:10;;;;;;;;;;;15.10;66.00;;;;;;5290161;28;19923;-32
2022/03/18 00:59:41;;;;;;;;;;;15.00;65.80;;;;;;5289891;28;19928;-30
2022/03/18 01:02:13;;;;;;;;;;;15.10;66.10;;;;;;5289824;28;20429;-38
2022/03/18 01:04:44;;;;;;;;;;;15.00;65.90;;;;;;5289774;28;20004;-29
2022/03/18 01:07:17;;;;;;;;;;;15.10;65.90;;;;;;5289646;28;19955;-36
2022/03/18 01:09:48;;;;;;;;;;;15.00;65.80;;;;;;5289401;28;20368;-30
2022/03/18 01:12:19;;;;;;;;;;;15.00;65.90;;;;;;5289442;28;19920;-33
2022/03/18 01:14:50;;;;;;;;;;;15.00;65.90;;;;;;5289675;28;19920;-30
2022/03/18 01:17:21;;;;;;;;;;;15.00;66.00;;;;;;5289428;28;19927;-36
2022/03/18 01:19:52;;;;;;;;;;;15.00;66.20;;;;;;5289282;28;19930;-31
2022/03/18 01:22:23;;;;;;;;;;;15.00;66.00;;;;;;5289651;28;19924;-32
2022/03/18 01:24:54;;;;;;;;;;;15.00;66.30;;;;;;5288192;28;19924;-30
2022/03/18 01:27:24;;;;;;;;;;;14.90;66.40;;;;;;5288234;28;19924;-37
2022/03/18 01:29:55;;;;;;;;;;;14.90;66.40;;;;;;5288968;28;20288;-30
2022/03/18 01:32:26;;;;;;;;;;;14.90;66.40;;;;;;5289212;28;19919;-30
2022/03/18 01:34:57;;;;;;;;;;;15.00;66.50;;;;;;5287120;28;19919;-32
2022/03/18 01:37:28;;;;;;;;;;;15.00;66.60;;;;;;5289176;28;19926;-32
2022/03/18 01:39:59;;;;;;;;;;;14.90;66.50;;;;;;5289195;28;19942;-30
2022/03/18 01:42:30;;;;;;;;;;;14.90;66.70;;;;;;5288808;28;19919;-37
2022/03/18 01:45:01;;;;;;;;;;;14.90;66.60;;;;;;5267078;28;19920;-33
2022/03/18 01:47:32;;;;;;;;;;;14.90;66.80;;;;;;5286253;28;19920;-33
2022/03/18 01:50:04;;;;;;;;;;;14.90;66.70;;;;;;5289156;28;19919;-35
2022/03/18 01:52:35;;;;;;;;;;;14.90;66.90;;;;;;5274440;28;20266;-31
2022/03/18 01:55:06;;;;;;;;;;;14.90;67.10;;;;;;5287538;28;19926;-33
2022/03/18 01:57:37;;;;;;;;;;;14.90;66.80;;;;;;5289075;28;19946;-31
2022/03/18 02:00:08;;;;;;;;;;;14.90;67.20;;;;;;5288891;28;19919;-40
2022/03/18 02:02:39;;;;;;;;;;;14.90;67.10;;;;;;5289058;28;19942;-32
2022/03/18 02:05:11;;;;;;;;;;;14.90;66.90;;;;;;5288719;28;19933;-31
2022/03/18 02:07:43;;;;;;;;;;;14.80;66.80;;;;;;5288795;28;19919;-32
2022/03/18 02:10:14;;;;;;;;;;;14.80;66.80;;;;;;5287373;28;20012;-34
2022/03/18 02:12:46;;;;;;;;;;;14.80;66.60;;;;;;5289036;28;19964;-29
2022/03/18 02:15:17;;;;;;;;;;;14.80;66.90;;;;;;5288601;28;20284;-34
2022/03/18 02:17:48;;;;;;;;;;;14.80;67.00;;;;;;5288549;28;19919;-37
2022/03/18 02:20:19;;;;;;;;;;;14.80;66.70;;;;;;5288492;28;19965;-32
2022/03/18 02:22:50;;;;;;;;;;;14.80;67.50;;;;;;5291626;28;19951;-30
2022/03/18 02:25:21;;;;;;;;;;;14.80;67.00;;;;;;5293068;28;20361;-37
2022/03/18 02:27:53;;;;;;;;;;;14.80;67.10;;;;;;5293098;28;19926;-35
2022/03/18 02:30:24;;;;;;;;;;;14.80;66.70;;;;;;5292692;28;20312;-31
2022/03/18 02:32:55;;;;;;;;;;;14.80;66.70;;;;;;5291865;28;20015;-29
2022/03/18 02:35:28;;;;;;;;;;;14.80;66.60;;;;;;5292918;28;19920;-30
2022/03/18 02:38:00;;;;;;;;;;;14.80;66.50;;;;;;5291627;28;20265;-36
2022/03/18 02:40:31;;;;;;;;;;;14.80;66.50;;;;;;5292464;28;19926;-30
2022/03/18 02:43:02;;;;;;;;;;;14.80;66.50;;;;;;5292501;28;19919;-37
2022/03/18 02:45:33;;;;;;;;;;;14.80;66.50;;;;;;5292284;28;19919;-37
2022/03/18 02:48:06;;;;;;;;;;;14.70;66.40;;;;;;5292702;28;19926;-35
2022/03/18 02:50:37;;;;;;;;;;;14.70;66.30;;;;;;5292355;28;19963;-31
2022/03/18 02:53:10;;;;;;;;;;;14.70;66.30;;;;;;5277750;28;19965;-33
2022/03/18 02:55:41;;;;;;;;;;;14.70;66.60;;;;;;5292226;28;19953;-35
2022/03/18 02:58:12;;;;;;;;;;;14.70;67.00;;;;;;5291197;28;19931;-35
2022/03/18 03:00:44;;;;;;;;;;;14.70;66.70;;;;;;5292499;28;19924;-30
2022/03/18 03:03:15;;;;;;;;;;;14.70;66.70;;;;;;5290882;28;19950;-29
2022/03/18 03:08:36;;;;;;;;;;;14.70;66.90;;;;;;5278268;28;19924;-33
2022/03/18 03:11:08;;;;;;;;;;;14.70;66.70;;;;;;5290852;28;19920;-33
2022/03/18 03:13:39;;;;;;;;;;;14.70;66.90;;;;;;5291793;28;19926;-31
2022/03/18 03:16:10;;;;;;;;;;;14.70;66.60;;;;;;5290767;28;20288;-30
2022/03/18 03:18:41;;;;;;;;;;;14.70;66.90;;;;;;5291875;28;19919;-31
2022/03/18 03:21:12;;;;;;;;;;;14.70;66.70;;;;;;5292046;28;19920;-34
2022/03/18 03:23:43;;;;;;;;;;;14.70;66.60;;;;;;5291943;27;19919;-32
2022/03/18 03:26:14;;;;;;;;;;;14.60;66.60;;;;;;5291923;28;20277;-34
2022/03/18 03:28:45;;;;;;;;;;;14.70;66.90;;;;;;5291327;28;19927;-33
2022/03/18 03:31:16;;;;;;;;;;;14.70;66.80;;;;;;5291840;28;19970;-30
2022/03/18 03:33:47;;;;;;;;;;;14.70;66.60;;;;;;5289590;28;19947;-31
2022/03/18 03:36:18;;;;;;;;;;;14.70;66.50;;;;;;5269073;28;19931;-30
2022/03/18 03:38:49;;;;;;;;;;;14.70;66.80;;;;;;5288268;28;20034;-35
2022/03/18 03:41:22;;;;;;;;;;;14.70;66.80;;;;;;5290114;28;19920;-32
2022/03/18 03:43:52;;;;;;;;;;;14.70;66.80;;;;;;5291476;28;19927;-35
2022/03/18 03:46:23;;;;;;;;;;;14.70;67.10;;;;;;5290330;28;19976;-30
2022/03/18 03:48:54;;;;;;;;;;;14.70;67.10;;;;;;5291247;28;20448;-32
2022/03/18 03:51:28;;;;;;;;;;;14.70;67.10;;;;;;5285524;28;19924;-30
2022/03/18 03:53:59;;;;;;;;;;;14.60;67.00;;;;;;5282640;28;19919;-34
2022/03/18 03:56:32;;;;;;;;;;;14.70;66.90;;;;;;5291337;28;20335;-40
2022/03/18 03:59:02;;;;;;;;;;;14.60;66.90;;;;;;5291077;28;19926;-30
2022/03/18 04:01:33;;;;;;;;;;;14.60;66.90;;;;;;5291063;28;19919;-33
2022/03/18 04:04:04;;;;;;;;;;;14.60;67.10;;;;;;5290640;27;19959;-30
2022/03/18 04:06:35;;;;;;;;;;;14.60;67.00;;;;;;5290697;28;19920;-37
2022/03/18 04:09:06;;;;;;;;;;;14.60;67.00;;;;;;5291155;28;19926;-29
2022/03/18 04:11:37;;;;;;;;;;;14.60;67.00;;;;;;5275616;28;19924;-30
2022/03/18 04:14:08;;;;;;;;;;;14.60;66.90;;;;;;5272601;28;19927;-29
2022/03/18 04:16:39;;;;;;;;;;;14.60;64.20;;;;;;5271935;28;20289;-37
2022/03/18 04:19:10;;;;;;;;;;;14.60;63.40;;;;;;5271713;28;19927;-30
2022/03/18 04:21:42;;;;;;;;;;;14.60;63.20;;;;;;5280042;28;19920;-30
2022/03/18 04:24:13;;;;;;;;;;;14.60;62.90;;;;;;5291197;28;19927;-30
2022/03/18 04:26:44;;;;;;;;;;;14.50;62.60;;;;;;5286822;28;19919;-32
2022/03/18 04:29:14;;;;;;;;;;;14.50;62.50;;;;;;5282515;28;19923;-30
2022/03/18 04:31:45;;;;;;;;;;;14.50;62.30;;;;;;5287412;28;19923;-38
2022/03/18 04:34:16;;;;;;;;;;;14.50;62.30;;;;;;5272500;28;19920;-30
2022/03/18 04:36:47;;;;;;;;;;;14.50;62.30;;;;;;5271395;28;19920;-33
2022/03/18 04:39:18;;;;;;;;;;;14.60;62.30;;;;;;5271520;28;19970;-35
2022/03/18 04:41:50;;;;;;;;;;;14.60;62.10;;;;;;5271406;28;19920;-32
2022/03/18 04:44:20;;;;;;;;;;;14.60;62.00;;;;;;5271463;28;20311;-30
2022/03/18 04:46:51;;;;;;;;;;;14.60;61.90;;;;;;5270004;28;19920;-29
2022/03/18 04:49:22;;;;;;;;;;;14.70;61.90;;;;;;5276096;28;19920;-30
2022/03/18 04:51:53;;;;;;;;;;;14.70;61.80;;;;;;5292053;28;20011;-30
2022/03/18 04:54:24;;;;;;;;;;;14.70;61.90;;;;;;5270580;28;20349;-29
2022/03/18 04:59:45;;;;;;;;;;;14.80;61.70;;;;;;5270532;28;19920;-32
2022/03/18 05:02:17;;;;;;;;;;;14.80;61.90;;;;;;5271101;28;19943;-35
2022/03/18 05:04:48;;;;;;;;;;;14.80;61.70;;;;;;5269848;28;19920;-38
2022/03/18 05:07:20;;;;;;;;;;;14.80;61.60;;;;;;5270962;28;19920;-29
2022/03/18 05:09:51;;;;;;;;;;;14.80;61.50;;;;;;5270896;28;19920;-35
2022/03/18 05:12:22;;;;;;;;;;;14.90;61.40;;;;;;5271150;28;19920;-32
2022/03/18 05:14:54;;;;;;;;;;;14.20;62.20;;;;;;5269510;28;19927;-33
2022/03/18 05:17:27;;;;;;;;;;;13.40;63.30;;;;;;5270630;28;19973;-33
2022/03/18 05:19:58;;;;;;;;;;;12.80;64.40;;;;;;5270697;28;19927;-37
2022/03/18 05:22:30;;;;;;;;;;;12.40;65.70;;;;;;5270685;28;20361;-30
2022/03/18 05:25:05;;;;;;;;;;;12.10;65.50;;;;;;5270405;28;19920;-35
2022/03/18 05:27:40;;;;;;;;;;;11.90;66.50;;;;;;5270483;28;19929;-30
2022/03/18 05:30:12;;;;;;;;;;;11.90;66.30;;;;;;5270822;28;19920;-30
2022/03/18 05:32:43;;;;;;;;;;;12.30;66.00;;;;;;5270408;28;20301;-34
2022/03/18 05:35:16;;;;;;;;;;;12.70;65.70;;;;;;5270436;28;19920;-35
2022/03/18 05:37:47;;;;;;;;;;;13.00;65.30;;;;;;5270351;28;19927;-32
2022/03/18 05:40:18;;;;;;;;;;;13.40;68.40;;;;;;5270023;28;19920;-42
2022/03/18 05:42:49;;;;;;;;;;;13.70;67.00;;;;;;5268830;28;19920;-30
2022/03/18 05:45:20;;;;;;;;;;;13.80;68.70;;;;;;5269290;28;20377;-30
2022/03/18 05:47:51;;;;;;;;;;;14.00;66.50;;;;;;5270692;28;19927;-31
2022/03/18 05:50:21;;;;;;;;;;;14.10;65.90;;;;;;5270029;28;19951;-37
2022/03/18 05:52:52;;;;;;;;;;;14.10;65.90;;;;;;5269909;28;19973;-30
2022/03/18 05:55:24;;;;;;;;;;;14.20;65.30;;;;;;5271010;28;19919;-33
2022/03/18 05:57:55;;;;;;;;;;;14.20;65.00;;;;;;5267399;28;20609;-33
2022/03/18 06:00:25;;;;;;;;;;;14.30;64.70;;;;;;5281473;28;19923;-29
2022/03/18 06:02:58;;;;;;;;;;;14.40;64.80;;;;;;5288587;28;19989;-35
2022/03/18 06:05:29;;;;;;;;;;;14.40;64.70;;;;;;5288831;28;20002;-31
2022/03/18 06:11:48;;;;;;;;;;;14.40;64.70;;;;;;5287650;28;19919;-29
2022/03/18 06:13:40;;;;;;;;;;;14.50;64.30;;;;;;5287598;28;19960;-31
2022/03/18 06:16:11;;;;;;;;;;;14.60;64.00;;;;;;5288707;28;19963;-32
2022/03/18 06:18:42;;;;;;;;;;;14.60;63.90;;;;;;5288618;28;19919;-35
2022/03/18 06:21:15;;;;;;;;;;;14.60;64.40;;;;;;5288634;28;20307;-34
2022/03/18 06:23:46;;;;;;;;;;;14.70;65.00;;;;;;5288519;28;20625;-30
2022/03/18 06:26:16;;;;;;;;;;;14.70;64.90;;;;;;5288686;28;19919;-32
2022/03/18 06:28:48;;;;;;;;;;;14.70;64.50;;;;;;5288491;28;20007;-30
2022/03/18 06:31:19;;;;;;;;;;;14.70;66.60;;;;;;5288440;28;20310;-31
2022/03/18 06:33:50;;;;;;;;;;;14.90;78.10;;;;;;5280137;28;19920;-31
2022/03/18 06:36:21;;;;;;;;;;;15.00;81.90;;;;;;5282798;28;19919;-36
2022/03/18 06:38:52;;;;;;;;;;;15.10;82.30;;;;;;5288481;28;19919;-30
2022/03/18 06:41:23;;;;;;;;;;;15.20;82.40;;;;;;5288395;28;19920;-32
2022/03/18 06:43:54;;;;;;;;;;;15.30;84.80;;;;;;5288507;28;19919;-44
2022/03/18 06:46:25;;;;;;;;;;;15.40;80.50;;;;;;5288425;28;19924;-29
2022/03/18 06:48:57;;;;;;;;;;;15.50;81.90;;;;;;5274068;28;19981;-38
2022/03/18 06:51:28;;;;;;;;;;;15.60;81.20;;;;;;5288646;28;19920;-31
2022/03/18 06:53:59;;;;;;;;;;;15.70;81.10;;;;;;5288471;28;19919;-41
2022/03/18 06:56:30;;;;;;;;;;;15.80;81.90;;;;;;5288303;28;19942;-31
2022/03/18 06:59:02;;;;;;;;;;;15.00;64.00;;;;;;5266167;28;19920;-29
2022/03/18 07:01:32;;;;;;;;;;;14.10;64.10;;;;;;5280150;28;19919;-29
2022/03/18 07:04:03;;;;;;;;;;;13.60;65.50;;;;;;5287164;28;19920;-29
2022/03/18 07:06:34;;;;;;;;;;;13.20;66.30;;;;;;5288468;28;19931;-29
2022/03/18 07:09:05;;;;;;;;;;;13.00;66.00;;;;;;5289528;28;20300;-29
2022/03/18 07:11:36;;;;;;;;;;;12.80;66.80;;;;;;5291831;27;19934;-28
2022/03/18 07:14:07;;;;;;;17.57;13.17;;;12.70;66.50;;;;;;5291349;28;19927;-31
2022/03/18 07:19:28;;;;;;;;;;;12.50;66.70;;;;;;5294246;28;20381;-29
2022/03/18 07:21:59;;;;;;;;;;;12.40;67.30;;;;;;5293879;28;19927;-29
2022/03/18 07:24:30;;;;;;;;;;;12.40;66.80;;;;;;5294452;28;19919;-31
2022/03/18 07:27:04;;;;;;;;;;;12.30;66.40;;;;;;5293043;28;19919;-30
2022/03/18 07:29:36;;;;;;;;;;;12.30;67.10;;;;;;5294252;28;20331;-30
2022/03/18 07:32:07;;;;;;;;;;;12.20;65.20;;;;;;5293811;28;19924;-30
2022/03/18 07:34:38;;;;;;;;;;;12.20;65.90;;;;;;5294441;28;19962;-30
2022/03/18 07:37:09;;;;;;;;;;;12.10;65.90;;;;;;5293874;28;19969;-29
2022/03/18 07:39:46;;;;;;;;;;;12.00;65.40;;;;;;5293823;28;19927;-28
2022/03/18 07:42:18;;;;;;;;;;;12.00;65.80;;;;;;5292592;28;19920;-29
2022/03/18 07:44:49;;;;;;;14.37;10.83;;;12.00;66.00;;;;;;5292281;28;19920;-30
2022/03/18 07:47:20;;;;;;;15.37;11.80;;;11.90;65.20;;;;;;5292993;28;20105;-30
2022/03/18 07:49:54;;;;;;;16.27;12.57;;;11.90;64.90;;;;;;5292895;27;20043;-30
2022/03/18 07:52:26;;;;;;;13.93;10.93;;;11.80;66.60;;;;;;5291871;28;20477;-29
2022/03/18 07:54:57;;;;;;;13.88;11.48;;;11.80;64.70;;;;;;5292960;28;20063;-29
2022/03/18 07:57:34;;;;;;;13.20;11.27;;;11.80;65.80;;;;;;5291609;28;20040;-29
2022/03/18 08:00:07;;;;;;;12.53;11.23;;;11.80;65.10;;;;;;5293213;28;20127;-30
2022/03/18 08:02:43;;;;;;;13.63;10.13;;;11.80;64.50;;;;;;5291680;28;20047;-31
2022/03/18 08:05:15;;;;;;;16.53;12.70;;;11.80;64.90;;;;;;5292763;28;20130;-31
2022/03/18 08:07:49;;;;;;;12.67;10.13;;;11.70;63.60;;;;;;5257862;28;20076;-33
2022/03/18 08:10:23;;;;;;;12.30;10.17;;;11.70;64.20;;;;;;5258822;28;20058;-29
2022/03/18 08:12:54;;;;;;;13.27;10.50;;;11.70;63.10;;;;;;5274551;28;20092;-31
2022/03/18 08:15:28;;;;;;;12.13;9.93;;;11.60;64.10;;;;;;5274619;28;20066;-29
2022/03/18 08:18:00;;;;;;;;;;;11.60;64.70;;;;;;5236544;28;20444;-30
2022/03/18 08:20:39;;;;;;;;;;;11.70;63.80;;;;;;5269268;28;20065;-30
2022/03/18 08:23:12;;;;;;;13.57;10.13;;;11.70;62.60;;;;;;5252961;28;20445;-30
2022/03/18 08:25:43;;;;;;;11.43;8.90;;;11.70;63.20;;;;;;5269251;28;20051;-30
2022/03/18 08:28:15;;;;;;;11.20;8.57;;;11.70;62.20;;;;;;5252175;28;20548;-32
2022/03/18 08:30:46;;;;;;;13.70;9.20;;;11.70;62.10;;;;;;5268771;28;20189;-28
2022/03/18 08:33:19;;;;;;;10.60;8.37;;;11.80;63.60;;;;;;5252397;28;20183;-29
2022/03/18 08:35:51;;;;;;;10.23;7.60;;;11.90;62.80;;;;;;5227099;28;20049;-30
2022/03/18 08:38:22;;;;;;;11.63;9.17;;;12.00;62.30;;;;;;5227107;28;20049;-31
2022/03/18 08:40:54;;;;;;;8.97;7.70;;;12.10;61.80;;;;;;5227000;28;20053;-28
2022/03/18 08:43:25;;;;;;;9.33;7.73;;;12.10;60.30;;;;;;5209769;28;20118;-33
2022/03/18 08:46:23;;;;;;;11.40;8.73;;;12.10;62.30;;;;;;5226939;28;20103;-33
2022/03/18 08:48:54;;;;;;;9.67;7.43;;;12.10;61.30;;;;;;5216794;28;20063;-30
2022/03/18 08:51:33;;;;;;;11.13;8.27;;;12.10;61.50;;;;;;5226016;28;20103;-30
2022/03/18 08:54:05;;;;;;;11.30;8.70;;;12.10;61.30;;;;;;5209645;28;20076;-30
2022/03/18 08:56:39;;;;;;;8.70;7.80;;;12.10;61.60;;;;;;5210167;28;20056;-30
2022/03/18 08:59:15;;;;;;;10.80;8.27;;;12.10;62.10;;;;;;5226902;28;20499;-30
2022/03/18 09:01:47;;;;;;;10.97;8.03;;;12.10;60.50;;;;;;5226268;28;20045;-30
2022/03/18 09:04:18;;;;;;;9.83;7.97;;;12.10;62.60;;;;;;5226978;28;20040;-29
2022/03/18 09:06:49;;;;;;;8.97;6.40;;;12.10;58.60;;;;;;5209526;28;20048;-34
2022/03/18 09:09:23;;;;;;;;;;;12.10;60.10;;;;;;5226891;28;20053;-32
2022/03/18 09:11:55;;;;;;;;;;;12.30;63.30;;;;;;5226869;28;19956;-29
2022/03/18 09:14:28;;;;;;;;;;;12.70;72.50;;;;;;5268425;28;19963;-30
2022/03/18 09:17:04;;;;;;;;;;;13.10;75.80;;;;;;5268436;28;19973;-33
2022/03/18 09:19:37;;;;;;;;;;;13.50;74.50;;;;;;5279039;28;19924;-30
2022/03/18 09:22:09;;;;;;;;;;;13.80;70.90;;;;;;5291533;28;19920;-34
2022/03/18 09:24:41;;;;;;;;;;;14.10;76.20;;;;;;5291557;28;19919;-34
2022/03/18 09:27:17;;;;;;;;;;;14.30;64.70;;;;;;5291578;28;20014;-33
2022/03/18 09:29:49;;;;;;;;;;;14.40;61.30;;;;;;5290388;28;20321;-30
2022/03/18 09:32:21;;;;;;;;;;;14.50;64.80;;;;;;5290512;28;19919;-36
2022/03/18 09:34:55;;;;;;;;;;;14.60;59.70;;;;;;5291232;28;19919;-32
2022/03/18 09:37:26;;;;;;;;;;;14.70;57.90;;;;;;5289986;28;19930;-37
2022/03/18 09:39:57;;;;;;;;;;;14.80;58.60;;;;;;5291431;28;19998;-36
2022/03/18 09:42:28;;;;;;;;;;;14.80;57.50;;;;;;5291302;28;19988;-30
2022/03/18 09:45:01;;;;;;;;;;;14.80;57.30;;;;;;5290200;28;19945;-31
2022/03/18 09:47:32;;;;;;;;;;;14.80;59.40;;;;;;5289971;28;19919;-30
2022/03/18 09:50:04;;;;;;;;;;;14.90;58.10;;;;;;5289806;28;19920;-34
2022/03/18 09:52:38;;;;;;;;;;;14.90;59.10;;;;;;5291857;27;20298;-35
2022/03/18 09:55:12;;;;;;;;;;;14.90;57.90;;;;;;5273083;28;19920;-30
2022/03/18 09:57:45;;;;;;;;;;;14.90;57.20;;;;;;5290159;28;20201;-31
2022/03/18 10:00:19;;;;;;;;;;;14.90;56.80;;;;;;5290740;28;20365;-30
2022/03/18 10:03:08;;;;;;;;;;;15.00;59.50;;;;;;5289654;28;20381;-31
2022/03/18 10:05:56;;;;;;;;;;;15.00;66.90;;;;;;5291221;28;20392;-30
2022/03/18 10:08:41;;;;;;;;;;;15.10;64.30;;;;;;5290019;28;19973;-37
2022/03/18 10:11:12;;;;;;;;;;;15.10;59.70;;;;;;5290770;28;19931;-37
2022/03/18 10:14:03;;;;;;;;;;;15.10;54.60;;;;;;5290874;28;19977;-32
2022/03/18 10:16:44;;;;;;;;;;;15.10;53.70;;;;;;5291106;28;20052;-32
2022/03/18 10:19:16;;;;;;;;;;;15.10;53.30;;;;;;5289661;28;20377;-32
2022/03/18 10:21:50;;;;;;;;;;;15.20;56.10;;;;;;5290901;28;19997;-33
2022/03/18 10:24:22;;;;;;;;;;;15.20;53.70;;;;;;5289366;28;19923;-30
2022/03/18 10:27:14;;;;;;;;;;;15.10;53.60;;;;;;5289195;28;20377;-34
2022/03/18 10:29:49;;;;;;;;;;;15.10;52.30;;;;;;5290301;28;19934;-32
2022/03/18 10:32:24;;;;;;;;;;;15.00;52.10;;;;;;5291329;28;19924;-34
2022/03/18 10:37:48;;;;;;;;;;;15.00;52.80;;;;;;5290586;28;19924;-33
2022/03/18 10:40:35;;;;;;;;;;;15.00;52.90;;;;;;5280367;28;19950;-30
2022/03/18 10:43:08;;;;;;;;;;;15.00;53.10;;;;;;5268779;28;19925;-32
2022/03/18 10:45:39;;;;;;;;;;;15.00;53.10;;;;;;5289259;28;20440;-30
2022/03/18 10:48:12;;;;;;;;;;;15.00;53.00;;;;;;5278287;28;20266;-39
2022/03/18 10:50:45;;;;;;;;;;;15.00;53.00;;;;;;5289438;28;19923;-31
2022/03/18 10:53:20;;;;;;;;;;;14.90;52.70;;;;;;5292390;28;19942;-40
2022/03/18 10:55:52;;;;;;;;;;;15.00;52.80;;;;;;5290540;28;19924;-38
2022/03/18 10:58:23;;;;;;;;;;;15.00;52.90;;;;;;5277397;28;19924;-34
2022/03/18 11:00:56;;;;;;;;;;;15.00;53.20;;;;;;5277578;28;19928;-32
2022/03/18 11:03:33;;;;;;;;;;;15.00;53.70;;;;;;5290899;28;19924;-41
2022/03/18 11:06:05;;;;;;;;;;;15.00;53.80;;;;;;5274410;28;19931;-36
2022/03/18 11:08:47;;;;;;;;;;;15.00;53.80;;;;;;5290914;28;19939;-30
2022/03/18 11:11:20;;;;;;;;;;;15.00;55.80;;;;;;5291659;28;19969;-32
2022/03/18 11:13:59;;;;;;;;;;;15.00;55.10;;;;;;5292198;28;20316;-39
2022/03/18 11:16:36;;;;;;;;;;;15.00;55.10;;;;;;5290628;28;20431;-32
2022/03/18 11:19:13;;;;;;;;;;;15.00;55.10;;;;;;5290807;28;19951;-31
2022/03/18 11:21:45;;;;;;;;;;;15.00;55.30;;;;;;5290119;28;20002;-31
2022/03/18 11:24:20;;;;;;;;;;;15.00;55.70;;;;;;5290492;28;20388;-31
2022/03/18 11:26:51;;;;;;;;;;;15.00;55.60;;;;;;5290553;28;19972;-32
2022/03/18 11:29:29;;;;;;;;;;;15.00;55.40;;;;;;5279262;28;20429;-39
2022/03/18 11:32:09;;;;;;;;;;;15.00;55.40;;;;;;5290008;28;19949;-34
2022/03/18 11:34:59;;;;;;;;;;;15.00;55.30;;;;;;5290465;28;19923;-34
2022/03/18 11:37:32;;;;;;;;;;;15.00;55.20;;;;;;5279387;28;19924;-35
2022/03/18 11:40:20;;;;;;;;;;;15.00;55.20;;;;;;5291280;28;19924;-31
2022/03/18 11:42:51;;;;;;;;;;;15.00;55.80;;;;;;5291398;28;19924;-32
2022/03/18 11:45:32;;;;;;;;;;;15.00;55.10;;;;;;5290986;28;20414;-32
2022/03/18 11:48:42;;;;;;;;;;;15.00;54.90;;;;;;5291383;28;20619;-31
2022/03/18 11:51:25;;;;;;;;;;;15.00;55.00;;;;;;5270481;28;19985;-32
2022/03/18 11:54:07;;;;;;;;;;;14.90;54.90;;;;;;5290493;28;19978;-33
2022/03/18 11:56:45;;;;;;;;;;;15.00;55.20;;;;;;5291068;28;20073;-41
2022/03/18 11:59:25;;;;;;;;;;;15.00;55.20;;;;;;5288129;28;19924;-30
2022/03/18 12:01:57;;;;;;;;;;;15.00;55.30;;;;;;5280750;28;20002;-30
2022/03/18 12:04:40;;;;;;;;;;;14.90;55.70;;;;;;5290947;28;20694;-39
2022/03/18 12:07:12;;;;;;;;;;;15.00;56.50;;;;;;5290856;28;19928;-31
2022/03/18 12:09:56;;;;;;;;;;;15.00;58.20;;;;;;5290649;28;19981;-33
2022/03/18 12:12:42;;;;;;;;;;;15.10;61.60;;;;;;5269262;28;19932;-32
2022/03/18 12:15:16;;;;;;;;;;;15.10;58.50;;;;;;5277038;28;19928;-31
2022/03/18 12:17:55;;;;;;;;;;;15.10;58.20;;;;;;5290300;27;19963;-31
2022/03/18 12:20:30;;;;;;;;;;;15.10;57.60;;;;;;5290387;28;20452;-30
2022/03/18 12:23:20;;;;;;;;;;;15.10;58.00;;;;;;5289309;28;19931;-30
2022/03/18 12:25:54;;;;;;;;;;;15.10;57.40;;;;;;5290636;28;20007;-32
2022/03/18 12:28:25;;;;;;;;;;;15.10;60.70;;;;;;5288936;28;19928;-36
2022/03/18 12:30:56;;;;;;;;;;;15.00;58.10;;;;;;5290614;28;20292;-38
2022/03/18 12:33:32;;;;;;;;;;;15.10;59.40;;;;;;5290398;28;19928;-30
2022/03/18 12:36:04;;;;;;;;;;;15.10;58.50;;;;;;5288957;28;20028;-34
2022/03/18 12:38:35;;;;;;;;;;;15.10;58.30;;;;;;5290096;28;19932;-31
2022/03/18 12:41:07;;;;;;;;;;;15.10;58.60;;;;;;5290669;28;20008;-31
2022/03/18 12:43:43;;;;;;;;;;;15.10;59.60;;;;;;5272855;28;19930;-31
2022/03/18 12:46:16;;;;;;;;;;;15.10;57.90;;;;;;5275390;28;20361;-32
2022/03/18 12:48:47;;;;;;;;;;;15.10;56.10;;;;;;5292199;28;19976;-33
2022/03/18 12:51:18;;;;;;;;;;;15.10;55.40;;;;;;5292043;28;20018;-31
2022/03/18 12:53:49;;;;;;;;;;;15.10;54.60;;;;;;5291880;28;19924;-37
2022/03/18 12:56:22;;;;;;;;;;;15.10;54.20;;;;;;5292310;28;19949;-34
2022/03/18 12:58:57;;;;;;;;;;;15.10;54.10;;;;;;5291089;28;20269;-31
2022/03/18 13:01:28;;;;;;;;;;;15.10;54.10;;;;;;5292757;27;19924;-37
2022/03/18 13:04:07;;;;;;;;;;;15.20;54.30;;;;;;5292187;28;19924;-37
2022/03/18 13:06:39;;;;;;;;;;;15.10;54.70;;;;;;5290032;28;20286;-30
2022/03/18 13:09:12;;;;;;;;;;;15.20;55.20;;;;;;5291968;28;20307;-36
2022/03/18 13:11:43;;;;;;;;;;;15.20;55.40;;;;;;5291954;28;19931;-37
2022/03/18 13:14:27;;;;;;;;;;;15.10;55.10;;;;;;5291893;28;19924;-33
2022/03/18 13:16:58;;;;;;;;;;;15.10;55.00;;;;;;5291707;28;19931;-35
2022/03/18 13:19:39;;;;;;;;;;;15.10;54.70;;;;;;5291944;28;19923;-39
2022/03/18 13:22:17;;;;;;;;;;;15.20;54.80;;;;;;5291874;28;20319;-38
2022/03/18 13:24:50;;;;;;;;;;;15.20;55.20;;;;;;5291787;28;19928;-40
2022/03/18 13:27:21;;;;;;;;;;;15.20;55.70;;;;;;5291688;28;19930;-37
2022/03/18 13:32:51;;;;;;;;;;;15.30;55.70;;;;;;5290759;28;20296;-31
2022/03/18 13:35:23;;;;;;;;;;;15.30;55.50;;;;;;5291587;28;19963;-28
2022/03/18 13:38:10;;;;;;;;;;;15.40;55.70;;;;;;5291613;28;19924;-29
2022/03/18 13:41:02;;;;;;;;;;;15.30;55.50;;;;;;5291443;28;20285;-28
2022/03/18 13:43:34;;;;;;;;;;;15.30;55.80;;;;;;5291382;28;19924;-32
2022/03/18 13:46:18;;;;;;;;;;;15.40;56.00;;;;;;5290900;28;19927;-39
2022/03/18 13:48:50;;;;;;;;;;;15.30;56.10;;;;;;5291574;28;19931;-34
2022/03/18 13:51:41;;;;;;;;;;;15.30;56.10;;;;;;5290129;28;19924;-29
2022/03/18 13:54:17;;;;;;;;;;;15.30;57.00;;;;;;5290663;28;19931;-31
2022/03/18 13:57:01;;;;;;;;;;;15.30;57.10;;;;;;5291932;28;20269;-28
2022/03/18 13:59:32;;;;;;;;;;;15.30;56.80;;;;;;5291486;28;20019;-33
2022/03/18 14:02:04;;;;;;;;;;;15.40;56.90;;;;;;5272759;28;20389;-30
2022/03/18 14:04:44;;;;;;;;;;;15.40;56.90;;;;;;5291185;28;19923;-28
2022/03/18 14:07:15;;;;;;;;;;;15.40;56.90;;;;;;5289876;28;20385;-29
2022/03/18 14:09:56;;;;;;;;;;;15.50;61.80;;;;;;5291047;28;19931;-28
2022/03/18 14:12:28;;;;;;;;;;;15.50;61.40;;;;;;5291173;28;19962;-28
2022/03/18 14:15:06;;;;;;;;;;;15.50;59.70;;;;;;5291103;28;19923;-29
2022/03/18 14:17:56;;;;;;;;;;;15.40;59.00;;;;;;5291479;28;20065;-34
2022/03/18 14:20:27;;;;;;;;;;;15.40;59.00;;;;;;5295616;28;20060;-36
2022/03/18 14:22:58;;;;;;;;;;;15.40;59.70;;;;;;5295359;28;19949;-29
2022/03/18 14:25:29;;;;;;;;;;;15.30;58.90;;;;;;5295362;28;19924;-29
2022/03/18 14:28:00;;;;;;;;;;;15.30;58.60;;;;;;5295093;28;19931;-29
2022/03/18 14:30:31;;;;;;;;;;;15.30;59.30;;;;;;5295179;28;19923;-31
2022/03/18 14:33:02;;;;;;;;;;;15.30;61.60;;;;;;5295545;28;19928;-28
2022/03/18 14:35:33;;;;;;;;;;;15.30;61.60;;;;;;5293970;28;19923;-30
2022/03/18 14:38:04;;;;;;;;;;;15.30;61.10;;;;;;5295182;28;19924;-30
2022/03/18 14:40:35;;;;;;;;;;;15.30;59.90;;;;;;5295044;28;19934;-32
2022/03/18 14:43:06;;;;;;;;;;;15.30;60.10;;;;;;5295018;28;19923;-33
2022/03/18 14:45:38;;;;;;;;;;;15.30;60.10;;;;;;5294867;28;19983;-28
2022/03/18 14:48:11;;;;;;;;;;;15.30;61.90;;;;;;5294913;28;19955;-37
2022/03/18 14:50:42;;;;;;;;;;;15.30;63.80;;;;;;5294656;28;19969;-36
2022/03/18 14:53:14;;;;;;;;;;;15.30;61.20;;;;;;5294603;28;20381;-35
2022/03/18 14:58:34;;;;;;;;;;;15.20;60.80;;;;;;5294685;28;19968;-28
2022/03/18 15:01:06;;;;;;;;;;;15.30;61.20;;;;;;5294287;28;20277;-30
2022/03/18 15:03:37;;;;;;;;;;;15.30;60.80;;;;;;5294653;28;19977;-35